logo dgac
Martes 21 de Septiembre del 2021
Buscar por aerodromo o helipuerto
Ingrese nombre de aeródromo, localidad o designador OACI:
TAF: TAF SCIC 211100Z 2112/2124 18004KT CAVOK TX19/2118Z TN05/2112Z TEMPO 2112/2114 VRB02KT 4000 BR SCT005 BECMG 2116/2118 21011KT
TAF del 21/09/2021 a las 11:00 UTC
Para mayor información visite www.meteochile.cl
Período de validez: desde el 21 a las 12:00 UTC hasta el 21 a las 24:00 UTC
Viento: dirección 180 grados, velocidad 4 nudos
Visibilidad: 10 km o más,
    sin nubes bajo los 5.000 pies o bajo del MSA (Mínimo de Seguridad del Aeródromo),
    sin cumulonimbus, y sin fenómenos de tiempo significativo en el aeródromo o alrededores
Temperatura máxima: 19ºC el 21 a las 18:00 UTC
Temperatura mínima: 5ºC el 21 a las 12:00 UTC
Se espera en forma temporal entre las 12:00 UTC del 21 y las 14:00 UTC del 21:
Viento: dirección variable, velocidad 2 nudos
Visibilidad: 4000 metros
Neblina
Nubes: Nubosidad parcial a 500 pies sobre el nivel del aeródromo
Se espera un cambio entre las 16:00 UTC del 21 y las 18:00 UTC del 21, :
Viento: dirección 210 grados, velocidad 11 nudos